Time;durP1;ratioP1;P1;durP2;ratioP2;P2;SDS_P1;SDS_P2;PMS_P1;PMS_P2;Temp;Humidity;BMP_temperature;BMP_pressure;BME280_temperature;BME280_humidity;BME280_pressure;Samples;Min_cycle;Max_cycle;Signal;HPM_P1;HPM_P2
2023/01/07 00:01:09;;;;;;;;;13.67;13.00;;;;;14.06;100.00;101580.88;5120562;27;45413;-81
2023/01/07 00:03:35;;;;;;;;;4.33;4.33;;;;;14.01;100.00;101574.00;5097612;27;45286;-81
2023/01/07 00:06:06;;;;;;;;;5.67;5.67;;;;;14.05;100.00;101563.59;5099981;27;44940;-81
2023/01/07 00:08:33;;;;;;;;;4.33;4.33;;;;;14.05;100.00;101563.59;5112475;27;45430;-81
2023/01/07 00:11:09;;;;;;;;;5.33;5.00;;;;;14.12;100.00;101563.88;5123933;27;45569;-81
2023/01/07 00:13:35;;;;;;;;;3.67;3.67;;;;;14.11;100.00;101559.41;5122381;27;45412;-81
2023/01/07 00:16:06;;;;;;;;;5.33;2.67;;;;;13.83;100.00;101553.94;5097686;28;45259;-81
2023/01/07 00:18:32;;;;;;;;;4.00;4.00;;;;;13.98;100.00;101546.97;5119478;27;44849;-82
2023/01/07 00:20:59;;;;;;;;;6.00;6.00;;;;;13.98;100.00;101546.09;5101536;27;46978;-81
2023/01/07 00:23:25;;;;;;;;;4.00;4.00;;;;;13.97;100.00;101539.78;5097288;28;45005;-81
2023/01/07 00:25:51;;;;;;;;;2.00;2.00;;;;;13.88;100.00;101529.75;5095065;28;45330;-81
2023/01/07 00:28:17;;;;;;;;;6.00;4.33;;;;;13.98;100.00;101530.56;5119936;27;45239;-82
2023/01/07 00:30:42;;;;;;;;;5.00;4.00;;;;;14.06;100.00;101520.75;5114543;27;45504;-82
2023/01/07 00:33:11;;;;;;;;;4.00;4.00;;;;;14.14;100.00;101523.59;5101592;27;45755;-82
2023/01/07 00:35:37;;;;;;;;;3.33;3.00;;;;;14.06;100.00;101504.34;5102255;27;45281;-81
2023/01/07 00:38:03;;;;;;;;;6.00;5.00;;;;;13.96;100.00;101520.78;5099469;27;45217;-82
2023/01/07 00:40:31;;;;;;;;;2.67;2.67;;;;;14.04;100.00;101499.91;5093809;27;46961;-82
2023/01/07 00:43:04;;;;;;;;;4.00;4.00;;;;;14.03;100.00;101497.31;5113730;27;46164;-82
2023/01/07 00:45:32;;;;;;;;;6.00;5.00;;;;;14.20;100.00;101492.91;5090129;27;45491;-82
2023/01/07 00:47:59;;;;;;;;;3.67;2.67;;;;;14.11;100.00;101488.34;5099787;27;45235;-83
2023/01/07 00:50:31;;;;;;;;;3.33;3.33;;;;;14.04;100.00;101478.03;5083716;27;46802;-82
2023/01/07 00:52:57;;;;;;;;;3.67;3.67;;;;;14.18;100.00;101484.84;5102882;27;45278;-83
2023/01/07 00:55:23;;;;;;;;;6.00;3.00;;;;;13.99;100.00;101490.44;5114062;27;45073;-82
2023/01/07 00:57:49;;;;;;;;;5.00;5.00;;;;;13.92;100.00;101483.88;5094082;28;45456;-83
2023/01/07 01:00:16;;;;;;;;;4.00;4.00;;;;;14.06;100.00;101482.50;5095235;27;46160;-81
2023/01/07 01:02:42;;;;;;;;;2.67;2.67;;;;;14.07;100.00;101468.69;5101693;27;45261;-81
2023/01/07 01:05:08;;;;;;;;;3.00;3.00;;;;;14.09;100.00;101476.75;5120555;27;44929;-82
2023/01/07 01:07:34;;;;;;;;;2.67;2.33;;;;;13.90;100.00;101473.09;5101871;27;44915;-82
2023/01/07 01:10:00;;;;;;;;;4.00;4.00;;;;;13.97;100.00;101467.88;5121081;27;45305;-82
2023/01/07 01:12:26;;;;;;;;;5.00;3.33;;;;;14.03;100.00;101446.25;5098884;28;45312;-82
2023/01/07 01:14:52;;;;;;;;;4.00;4.00;;;;;14.03;100.00;101442.66;5112900;27;45417;-83
2023/01/07 01:17:18;;;;;;;;;5.33;5.33;;;;;13.96;100.00;101461.56;5092783;28;45420;-82
2023/01/07 01:19:43;;;;;;;;;4.00;2.67;;;;;13.93;100.00;101463.75;5114346;27;45401;-83
2023/01/07 01:22:08;;;;;;;;;2.00;2.00;;;;;13.94;100.00;101452.66;5101912;27;44709;-82
2023/01/07 01:24:34;;;;;;;;;3.67;3.00;;;;;13.96;100.00;101444.28;5120291;27;45393;-82
2023/01/07 01:26:59;;;;;;;;;4.00;3.33;;;;;13.86;100.00;101451.72;5119676;27;45294;-82
2023/01/07 01:29:24;;;;;;;;;3.00;3.00;;;;;13.88;100.00;101419.66;5113792;27;45403;-82
2023/01/07 01:31:50;;;;;;;;;2.00;2.00;;;;;13.83;100.00;101439.22;5118089;27;45412;-81
2023/01/07 01:34:15;;;;;;;;;3.00;3.00;;;;;13.82;100.00;101437.47;5085380;27;45135;-81
2023/01/07 01:36:41;;;;;;;;;6.00;3.00;;;;;13.84;100.00;101424.53;5093354;27;45269;-82
2023/01/07 01:39:06;;;;;;;;;4.33;3.00;;;;;13.70;100.00;101438.72;5116108;27;45475;-81
2023/01/07 01:41:32;;;;;;;;;2.00;2.00;;;;;13.87;100.00;101417.94;5118199;27;45373;-81
2023/01/07 01:43:57;;;;;;;;;3.00;3.00;;;;;13.93;100.00;101412.69;5113143;27;45355;-82
2023/01/07 01:46:35;;;;;;;;;1.67;1.67;;;;;14.02;100.00;101416.38;5113750;27;45227;-82
2023/01/07 01:49:22;;;;;;;;;2.67;2.67;;;;;13.98;100.00;101412.22;5120049;27;45549;-82
2023/01/07 01:51:56;;;;;;;;;5.67;4.00;;;;;13.89;100.00;101408.53;5111758;27;45141;-81
2023/01/07 01:54:24;;;;;;;;;4.00;3.00;;;;;13.96;100.00;101406.03;5100814;27;45369;-81
2023/01/07 01:56:52;;;;;;;;;2.00;1.67;;;;;13.96;100.00;101406.03;5115048;27;45534;-81
2023/01/07 01:59:23;;;;;;;;;3.00;3.00;;;;;13.94;100.00;101391.72;5095732;27;45549;-81
2023/01/07 02:01:49;;;;;;;;;3.00;1.33;;;;;13.99;100.00;101395.69;5108855;27;45156;-81
2023/01/07 02:04:21;;;;;;;;;1.67;1.67;;;;;13.95;100.00;101388.78;5112214;27;44751;-81
2023/01/07 02:07:14;;;;;;;;;2.00;2.00;;;;;13.90;100.00;101388.41;5090016;27;45444;-81
2023/01/07 02:09:40;;;;;;;;;2.00;2.00;;;;;13.70;100.00;101386.81;5101329;27;45867;-81
2023/01/07 02:12:28;;;;;;;;;4.67;3.00;;;;;13.79;100.00;101388.66;5107719;27;45306;-81
2023/01/07 02:15:09;;;;;;;;;3.00;3.00;;;;;13.84;100.00;101389.03;5115657;27;44742;-81
2023/01/07 02:17:54;;;;;;;;;2.00;2.00;;;;;13.82;100.00;101379.25;5096549;28;45462;-82
2023/01/07 02:20:38;;;;;;;;;3.00;3.00;;;;;13.94;100.00;101391.72;5115485;27;46238;-81
2023/01/07 02:23:28;;;;;;;;;4.00;4.00;;;;;13.79;100.00;101382.31;5111427;27;45392;-81
2023/01/07 02:26:18;;;;;;;;;2.33;2.33;;;;;13.81;100.00;101362.00;5119857;27;45412;-81
2023/01/07 02:29:02;;;;;;;;;3.00;3.00;;;;;13.89;100.00;101383.97;5117795;27;45321;-82
2023/01/07 02:31:45;;;;;;;;;6.00;2.67;;;;;13.95;100.00;101383.34;5111279;27;45271;-80
2023/01/07 02:34:32;;;;;;;;;6.33;4.00;;;;;13.82;100.00;101377.38;5077765;27;45569;-80
2023/01/07 02:37:20;;;;;;;;;2.00;2.00;;;;;13.88;100.00;101378.69;5093502;27;45329;-80
2023/01/07 02:39:58;;;;;;;;;3.00;3.00;;;;;13.78;100.00;101356.88;5084765;27;45360;-80
2023/01/07 02:43:01;;;;;;;;;2.33;2.33;;;;;13.91;100.00;101370.16;5101083;27;45318;-80
2023/01/07 02:45:31;;;;;;;;;4.33;3.00;;;;;13.81;100.00;101353.81;5076835;27;45451;-80
2023/01/07 02:48:04;;;;;;;;;3.00;3.00;;;;;13.87;100.00;101358.69;5097674;27;45346;-81
2023/01/07 02:50:29;;;;;;;;;2.00;2.00;;;;;13.84;100.00;101349.94;5077061;27;45246;-80
2023/01/07 02:52:55;;;;;;;;;3.33;2.00;;;;;13.81;100.00;101352.97;5074689;27;47196;-80
2023/01/07 02:55:30;;;;;;;;;2.00;2.00;;;;;13.88;100.00;101354.91;5078574;27;45322;-80
2023/01/07 02:58:20;;;;;;;;;1.00;1.00;;;;;13.81;100.00;101340.16;5084405;27;45317;-81
2023/01/07 03:01:20;;;;;;;;;1.00;1.00;;;;;13.87;100.00;101344.16;5097377;27;45965;-80
2023/01/07 03:04:10;;;;;;;;;2.33;2.00;;;;;13.84;100.00;101345.31;5084521;27;45496;-81
2023/01/07 03:06:53;;;;;;;;;2.33;2.33;;;;;13.80;100.00;101330.28;5098884;27;45394;-80
2023/01/07 03:09:35;;;;;;;;;1.67;1.00;;;;;13.67;100.00;101313.38;5074245;27;45767;-80
2023/01/07 03:12:18;;;;;;;;;2.00;2.00;;;;;13.73;100.00;101318.25;5093635;27;45437;-81
2023/01/07 03:14:50;;;;;;;;;3.00;3.00;;;;;13.76;100.00;101317.94;5087205;27;45197;-81
2023/01/07 03:17:24;;;;;;;;;3.00;3.00;;;;;13.74;100.00;101300.84;5074237;28;45400;-81
2023/01/07 03:19:56;;;;;;;;;2.67;2.33;;;;;13.69;100.00;101302.31;5093990;27;45317;-80
2023/01/07 03:22:24;;;;;;;;;2.00;2.00;;;;;13.78;100.00;101307.72;5102961;27;45510;-80
2023/01/07 03:24:51;;;;;;;;;1.67;1.67;;;;;13.77;100.00;101308.72;5070618;27;47122;-80
2023/01/07 03:27:21;;;;;;;;;2.00;2.00;;;;;13.78;100.00;101294.06;5079583;28;45343;-80
2023/01/07 03:29:48;;;;;;;;;2.00;2.00;;;;;13.81;100.00;101285.53;5089788;27;45492;-80
2023/01/07 03:32:17;;;;;;;;;1.00;1.00;;;;;13.85;100.00;101289.69;5100372;27;45357;-80
2023/01/07 03:34:43;;;;;;;;;2.67;2.33;;;;;13.80;100.00;101286.59;5083899;27;47055;-80
2023/01/07 03:37:15;;;;;;;;;2.33;1.00;;;;;13.84;100.00;101289.84;5098809;27;45565;-80
2023/01/07 03:39:43;;;;;;;;;2.00;2.00;;;;;13.86;100.00;101285.09;5102857;27;45547;-80
2023/01/07 03:44:54;;;;;;;;;1.00;1.00;;;;;13.62;100.00;101270.19;5100632;27;45909;-80
2023/01/07 03:47:20;;;;;;;;;2.00;2.00;;;;;13.75;100.00;101269.78;5075935;27;45900;-80
2023/01/07 03:49:45;;;;;;;;;1.00;1.00;;;;;13.77;100.00;101270.50;5099299;27;45437;-80
2023/01/07 03:52:11;;;;;;;;;2.67;2.67;;;;;13.78;100.00;101261.28;5101104;27;45366;-80
2023/01/07 03:54:36;;;;;;;;;3.00;1.33;;;;;13.83;100.00;101264.41;5092992;27;45358;-80
2023/01/07 03:57:02;;;;;;;;;1.00;1.00;;;;;13.81;100.00;101258.22;5100238;27;45337;-80
2023/01/07 03:59:27;;;;;;;;;2.00;2.00;;;;;13.88;100.00;101267.50;5078192;27;45336;-80
2023/01/07 04:01:52;;;;;;;;;1.33;1.33;;;;;13.83;100.00;101248.00;5083921;27;45492;-80
2023/01/07 04:04:18;;;;;;;;;0.33;0.33;;;;;13.83;100.00;101249.88;5078257;27;46807;-80
2023/01/07 04:06:43;;;;;;;;;1.00;1.00;;;;;13.55;100.00;101249.13;5101709;27;45342;-80
2023/01/07 04:09:10;;;;;;;;;1.67;1.67;;;;;13.75;100.00;101239.75;5075837;27;45259;-80
2023/01/07 04:11:36;;;;;;;;;1.67;1.67;;;;;13.77;100.00;101235.00;5100273;27;45482;-80
2023/01/07 04:14:01;;;;;;;;;3.00;1.00;;;;;13.85;100.00;101224.13;5088680;27;46062;-81
2023/01/07 04:16:26;;;;;;;;;3.00;1.33;;;;;13.88;100.00;101226.53;5095793;27;45259;-80
2023/01/07 04:18:52;;;;;;;;;3.00;1.33;;;;;13.78;100.00;101217.59;5101666;27;45511;-81
2023/01/07 04:21:17;;;;;;;;;3.00;1.00;;;;;13.84;100.00;101207.91;5104724;27;45306;-81
2023/01/07 04:23:43;;;;;;;;;3.00;1.67;;;;;13.79;100.00;101204.81;5100755;27;45550;-80
2023/01/07 04:26:08;;;;;;;;;1.00;1.00;;;;;13.79;100.00;101199.34;5104026;27;45864;-80
2023/01/07 04:28:33;;;;;;;;;3.67;2.00;;;;;13.70;100.00;101190.22;5084924;27;45478;-80
2023/01/07 04:30:59;;;;;;;;;4.00;2.33;;;;;13.74;100.00;101188.00;5100530;27;45447;-81
2023/01/07 04:33:24;;;;;;;;;1.33;1.33;;;;;13.74;100.00;101183.41;5098576;27;46761;-80
2023/01/07 04:35:50;;;;;;;;;2.67;2.00;;;;;13.73;100.00;101176.25;5105045;27;45235;-80
2023/01/07 04:38:15;;;;;;;;;3.00;2.67;;;;;13.51;100.00;101176.75;5091282;27;45293;-80
2023/01/07 04:40:41;;;;;;;;;2.67;2.67;;;;;13.53;100.00;101169.25;5086112;27;45475;-81
2023/01/07 04:43:08;;;;;;;;;2.00;2.00;;;;;13.41;100.00;101159.59;5105549;27;45613;-80
2023/01/07 04:45:33;;;;;;;;;2.00;2.00;;;;;13.34;100.00;101151.16;5102350;27;45363;-80
2023/01/07 04:47:58;;;;;;;;;2.00;1.00;;;;;13.27;100.00;101146.50;5095220;27;45449;-80
2023/01/07 04:50:24;;;;;;;;;2.00;2.00;;;;;13.20;100.00;101143.53;5102351;27;45563;-80
2023/01/07 04:52:49;;;;;;;;;0.33;0.33;;;;;13.14;100.00;101130.53;5097043;27;46412;-80
2023/01/07 04:55:15;;;;;;;;;2.00;2.00;;;;;13.13;100.00;101143.28;5096555;27;45352;-80
2023/01/07 04:57:40;;;;;;;;;3.00;2.00;;;;;13.02;100.00;101116.19;5097443;27;45464;-80
2023/01/07 05:00:07;;;;;;;;;1.67;1.67;;;;;13.06;100.00;101116.75;5095456;27;45448;-79
2023/01/07 05:02:33;;;;;;;;;2.00;2.00;;;;;13.03;100.00;101117.91;5088747;27;46346;-79
2023/01/07 05:04:58;;;;;;;;;2.00;2.00;;;;;12.88;100.00;101109.41;5093926;27;45357;-79
2023/01/07 05:07:24;;;;;;;;;1.33;1.33;;;;;12.85;100.00;101106.16;5096045;27;45361;-79
2023/01/07 05:09:49;;;;;;;;;2.00;2.00;;;;;12.79;100.00;101093.09;5092938;27;45301;-79
2023/01/07 05:12:14;;;;;;;;;4.00;4.00;;;;;12.86;100.00;101107.84;5094569;27;45433;-79
2023/01/07 05:14:40;;;;;;;;;4.67;4.67;;;;;12.71;100.00;101095.78;5091742;27;45296;-79
2023/01/07 05:17:05;;;;;;;;;4.00;2.67;;;;;12.69;100.00;101086.88;5097792;27;45734;-79
2023/01/07 05:19:31;;;;;;;;;5.00;3.33;;;;;12.69;100.00;101092.34;5083137;27;45679;-80
2023/01/07 05:21:56;;;;;;;;;3.33;3.33;;;;;12.46;100.00;101081.88;5103764;27;45301;-79
2023/01/07 05:24:21;;;;;;;;;3.00;3.00;;;;;12.33;100.00;101091.41;5085194;27;45339;-80
2023/01/07 05:26:47;;;;;;;;;5.00;4.00;;;;;12.34;100.00;101074.06;5103792;27;45403;-80
2023/01/07 05:29:12;;;;;;;;;9.33;4.00;;;;;12.45;100.00;101084.72;5093565;27;45466;-80
2023/01/07 05:31:37;;;;;;;;;4.00;3.33;;;;;12.40;100.00;101090.66;5081617;27;46422;-80
2023/01/07 05:34:03;;;;;;;;;3.00;3.00;;;;;12.34;100.00;101072.19;5074651;27;45454;-79
2023/01/07 05:36:28;;;;;;;;;4.00;4.00;;;;;12.30;100.00;101075.34;5097863;27;45539;-81
2023/01/07 05:38:54;;;;;;;;;5.00;5.00;;;;;12.33;100.00;101084.09;5070427;27;45387;-80
2023/01/07 05:41:19;;;;;;;;;3.00;3.00;;;;;12.29;100.00;101074.50;5097810;27;46373;-80
2023/01/07 05:43:45;;;;;;;;;5.00;5.00;;;;;12.29;100.00;101071.75;5076338;27;45538;-80
2023/01/07 05:46:10;;;;;;;;;5.67;5.67;;;;;12.17;100.00;101064.81;5071680;28;45419;-80
2023/01/07 05:48:35;;;;;;;;;3.00;3.00;;;;;12.18;100.00;101068.41;5093592;27;45362;-80
2023/01/07 05:51:01;;;;;;;;;5.00;3.67;;;;;12.09;100.00;101061.97;5100194;27;45617;-80
2023/01/07 05:53:26;;;;;;;;;8.00;6.00;;;;;12.05;100.00;101082.38;5086052;27;45442;-81
2023/01/07 05:55:56;;;;;;;;;3.67;3.67;;;;;12.01;100.00;101068.19;5102708;27;45449;-80
2023/01/07 05:58:22;;;;;;;;;6.33;4.67;;;;;12.08;100.00;101071.16;5101986;27;45423;-79
2023/01/07 06:00:47;;;;;;;;;5.00;5.00;;;;;11.96;100.00;101064.19;5084899;27;46586;-79
2023/01/07 06:03:12;;;;;;;;;5.00;5.00;;;;;11.91;100.00;101058.31;5102313;27;45309;-80
2023/01/07 06:05:38;;;;;;;;;5.00;5.00;;;;;11.97;100.00;101069.50;5100843;27;45441;-80
2023/01/07 06:08:03;;;;;;;;;8.00;5.00;;;;;11.90;100.00;101062.06;5083854;27;45223;-79
2023/01/07 06:10:28;;;;;;;;;4.67;4.67;;;;;11.94;100.00;101071.66;5080082;27;48368;-79
2023/01/07 06:12:54;;;;;;;;;4.00;4.00;;;;;11.89;100.00;101066.66;5098603;27;45310;-81
2023/01/07 06:15:19;;;;;;;;;4.33;4.33;;;;;11.83;100.00;101070.00;5097933;27;47500;-81
2023/01/07 06:17:44;;;;;;;;;7.33;6.67;;;;;11.71;100.00;101074.69;5099627;27;45333;-80
2023/01/07 06:20:11;;;;;;;;;5.00;5.00;;;;;11.74;100.00;101080.88;5079760;27;46907;-80
2023/01/07 06:22:36;;;;;;;;;5.00;5.00;;;;;11.70;100.00;101077.56;5103531;27;45305;-78
2023/01/07 06:25:02;;;;;;;;;3.33;3.00;;;;;11.76;100.00;101062.56;5098231;27;45362;-79
2023/01/07 06:27:28;;;;;;;;;5.00;5.00;;;;;11.74;100.00;101065.44;5102772;27;45433;-79
2023/01/07 06:29:53;;;;;;;;;4.00;3.33;;;;;11.71;100.00;101061.09;5089900;27;45746;-79
2023/01/07 06:32:18;;;;;;;;;10.00;8.00;;;;;11.44;100.00;101077.34;5101018;27;45218;-80
2023/01/07 06:34:44;;;;;;;;;5.00;4.67;;;;;11.59;100.00;101070.44;5090456;27;45300;-78
2023/01/07 06:37:09;;;;;;;;;7.33;7.33;;;;;11.60;100.00;101065.88;5100087;27;45236;-79
2023/01/07 06:39:35;;;;;;;;;5.00;5.00;;;;;11.46;100.00;101069.91;5088597;27;46710;-79
2023/01/07 06:42:00;;;;;;;;;5.67;5.67;;;;;11.51;100.00;101067.59;5098123;27;45407;-79
2023/01/07 06:44:25;;;;;;;;;5.67;5.33;;;;;11.51;100.00;101074.91;5087669;27;45296;-80
2023/01/07 06:46:51;;;;;;;;;4.00;4.00;;;;;11.51;100.00;101067.59;5097637;27;45461;-80
2023/01/07 06:49:16;;;;;;;;;6.33;4.00;;;;;11.43;100.00;101062.03;5082172;27;46910;-80
2023/01/07 06:51:41;;;;;;;;;9.00;6.33;;;;;11.34;100.00;101052.00;5086120;27;44724;-79
2023/01/07 06:54:07;;;;;;;;;4.00;4.00;;;;;11.38;100.00;101049.88;5067281;27;45221;-80
2023/01/07 06:56:32;;;;;;;;;9.00;9.00;;;;;11.26;100.00;101043.72;5103829;27;45351;-80
2023/01/07 06:58:57;;;;;;;;;5.00;3.33;;;;;11.36;100.00;101047.28;5067096;27;47591;-80
2023/01/07 07:01:23;;;;;;;;;4.33;4.33;;;;;11.35;100.00;101036.56;5082118;27;45432;-80
2023/01/07 07:03:48;;;;;;;;;8.00;6.33;;;;;11.46;100.00;101039.13;5095275;27;45214;-80
2023/01/07 07:06:13;;;;;;;;;4.33;4.33;;;;;11.41;100.00;101039.53;5082399;27;45633;-80
2023/01/07 07:08:39;;;;;;;;;8.00;8.00;;;;;11.45;100.00;101029.25;5090863;27;45649;-80
2023/01/07 07:11:04;;;;;;;;;5.67;5.67;;;;;11.44;100.00;101024.81;5103002;27;45384;-79
2023/01/07 07:13:29;;;;;;;;;8.00;5.00;;;;;11.39;100.00;101036.13;5100698;27;45499;-79
2023/01/07 07:15:55;;;;;;;;;3.33;3.00;;;;;11.38;100.00;101028.13;5103586;27;45381;-80
2023/01/07 07:18:20;;;;;;;;;5.33;5.33;;;;;11.45;100.00;101034.69;5099794;27;46334;-80
2023/01/07 07:20:46;;;;;;;;;8.00;5.00;;;;;11.41;100.00;101016.91;5100548;27;45296;-80
2023/01/07 07:23:11;;;;;;;;;9.00;6.33;;;;;11.36;100.00;101027.38;5098206;27;45489;-80
2023/01/07 07:25:36;;;;;;;;;9.67;5.00;;;;;11.35;100.00;101026.53;5101598;27;44853;-79
2023/01/07 07:28:02;;;;;;;;;6.33;6.33;;;;;11.33;100.00;101017.66;5097106;27;46508;-80
2023/01/07 07:30:28;;;;;;;;;3.67;3.67;;;;;11.30;100.00;101026.13;5081229;27;45357;-79
2023/01/07 07:32:53;;;;;;;;;4.67;4.67;;;;;11.33;100.00;101025.81;5095963;27;45247;-79
2023/01/07 07:35:18;;;;;;;;;5.00;5.00;;;;;11.29;100.00;101013.53;5080418;27;45330;-79
2023/01/07 07:37:44;;;;;;;;;3.00;3.00;;;;;11.18;100.00;101014.53;5107033;27;45439;-82
2023/01/07 07:40:09;;;;;;;;;6.33;5.00;;;;;11.21;100.00;101016.13;5107063;27;45230;-80
2023/01/07 07:42:37;;;;;;;;;4.33;4.33;;;;;11.17;100.00;101004.69;5104345;27;45517;-80
2023/01/07 07:45:04;;;;;;;;;6.33;5.00;;;;;11.20;100.00;101008.97;5083101;27;45301;-81
2023/01/07 07:47:29;;;;;;;;;4.67;4.67;;;;;11.17;100.00;100998.38;5105668;27;45454;-80
2023/01/07 07:49:55;;;;;;;;;5.67;5.67;;;;;11.13;100.00;100994.22;5106787;27;45392;-79
2023/01/07 07:52:20;;;;;;;;;7.00;5.33;;;;;11.10;100.00;100995.41;5105380;27;45239;-79
2023/01/07 07:54:45;;;;;;;;;3.33;3.33;;;;;10.98;100.00;100992.97;5107420;27;45262;-79
2023/01/07 07:57:11;;;;;;;;;3.00;3.00;;;;;11.05;100.00;100996.81;5103407;27;45620;-79
2023/01/07 07:59:36;;;;;;;;;7.33;7.33;;;;;11.07;100.00;100998.41;5100001;27;45314;-81
2023/01/07 08:02:01;;;;;;;;;4.67;4.67;;;;;11.11;100.00;100997.09;5083330;27;45387;-80
2023/01/07 08:04:27;;;;;;;;;5.00;5.00;;;;;10.92;100.00;100997.97;5104925;27;45348;-81
2023/01/07 08:06:53;;;;;;;;;6.67;4.67;;;;;11.03;100.00;100999.66;5099933;27;46267;-80
2023/01/07 08:09:19;;;;;;;;;5.00;5.00;;;;;11.08;100.00;100988.38;5099349;27;45585;-80
2023/01/07 08:11:44;;;;;;;;;3.67;3.00;;;;;11.04;100.00;100990.50;5098639;27;45294;-81
2023/01/07 08:14:09;;;;;;;;;5.00;5.00;;;;;11.03;100.00;100982.53;5081056;27;45501;-79
2023/01/07 08:16:35;;;;;;;;;6.00;4.00;;;;;11.08;100.00;100981.09;5104985;27;45438;-80
2023/01/07 08:19:00;;;;;;;;;5.00;4.33;;;;;11.08;100.00;100988.38;5105762;27;45242;-80
2023/01/07 08:21:25;;;;;;;;;4.67;4.67;;;;;10.97;100.00;100985.81;5104000;27;45293;-80
2023/01/07 08:23:51;;;;;;;;;2.00;2.00;;;;;10.98;100.00;100988.38;5087346;27;45291;-79
2023/01/07 08:26:16;;;;;;;;;7.00;7.00;;;;;11.04;100.00;100981.50;5105507;27;46581;-79
2023/01/07 08:28:42;;;;;;;;;5.67;5.00;;;;;10.90;100.00;100974.66;5106100;27;44718;-79
2023/01/07 08:31:07;;;;;;;;;4.67;4.00;;;;;11.08;100.00;100981.09;5081909;28;45407;-79
2023/01/07 08:33:36;;;;;;;;;4.33;4.00;;;;;11.19;100.00;100971.88;5097935;27;45420;-80
2023/01/07 08:36:07;;;;;;;;;6.00;6.00;;;;;11.18;100.00;100953.84;5100587;27;45444;-80
2023/01/07 08:38:33;;;;;;;;;2.67;2.67;;;;;11.17;100.00;100960.31;5094514;27;45326;-80
2023/01/07 08:40:58;;;;;;;;;7.33;4.33;;;;;11.22;100.00;100956.13;5100029;27;45211;-80
2023/01/07 08:43:24;;;;;;;;;7.67;6.00;;;;;11.30;100.00;100949.97;5086178;27;45483;-80
2023/01/07 08:45:50;;;;;;;;;7.67;4.67;;;;;11.37;100.00;100939.34;5076822;28;47154;-79
2023/01/07 08:48:16;;;;;;;;;3.00;3.00;;;;;11.37;100.00;100950.22;5086935;27;45372;-80
2023/01/07 08:50:42;;;;;;;;;5.00;3.67;;;;;11.45;100.00;100939.47;5100471;27;45414;-79
2023/01/07 08:53:07;;;;;;;;;8.00;8.00;;;;;11.35;100.00;100930.47;5106024;27;45349;-80
2023/01/07 08:55:32;;;;;;;;;7.67;7.00;;;;;11.40;100.00;100926.28;5104462;27;45702;-81
2023/01/07 08:57:58;;;;;;;;;6.33;4.33;;;;;11.50;100.00;100913.50;5105466;27;45400;-79
2023/01/07 09:00:23;;;;;;;;;5.67;5.67;;;;;11.55;100.00;100905.75;5103975;27;45424;-80
2023/01/07 09:02:49;;;;;;;;;5.00;5.00;;;;;11.67;100.00;100910.00;5106169;27;45231;-79
2023/01/07 09:05:14;;;;;;;;;9.00;6.33;;;;;11.74;100.00;100909.38;5103107;27;45502;-79
2023/01/07 09:07:40;;;;;;;;;7.00;5.67;;;;;11.84;100.00;100899.31;5078797;27;45235;-79
2023/01/07 09:10:07;;;;;;;;;6.33;6.33;;;;;11.87;100.00;100893.56;5080472;27;45521;-80
2023/01/07 09:12:32;;;;;;;;;8.33;5.33;;;;;11.97;100.00;100894.38;5083537;27;45294;-80
2023/01/07 09:14:58;;;;;;;;;8.67;6.33;;;;;11.86;100.00;100892.72;5102702;27;45602;-77
2023/01/07 09:17:23;;;;;;;;;8.33;6.33;;;;;11.90;100.00;100876.94;5103949;27;45318;-78
2023/01/07 09:19:48;;;;;;;;;5.00;5.00;;;;;11.98;100.00;100877.84;5094837;27;45500;-79
2023/01/07 09:22:14;;;;;;;;;5.33;4.00;;;;;11.99;100.00;100882.28;5098485;27;45431;-79
2023/01/07 09:24:39;;;;;;;;;8.00;5.67;;;;;11.99;100.00;100859.66;5089462;27;45421;-80
2023/01/07 09:27:04;;;;;;;;;6.00;6.00;;;;;11.81;100.00;100865.09;5096518;27;45441;-79
2023/01/07 09:29:30;;;;;;;;;5.67;4.33;;;;;11.64;100.00;100864.03;5093079;27;45346;-81
2023/01/07 09:31:55;;;;;;;;;9.00;5.00;;;;;11.45;100.00;100866.84;5083008;27;45469;-79
2023/01/07 09:34:20;;;;;;;;;5.00;5.00;;;;;11.71;100.00;100854.22;5103242;27;46330;-78
2023/01/07 09:36:46;;;;;;;;;6.00;5.67;;;;;11.81;100.00;100842.47;5104774;27;45313;-77
2023/01/07 09:39:12;;;;;;;;;7.67;5.33;;;;;12.02;100.00;100848.47;5099314;27;45271;-77
2023/01/07 09:41:50;;;;;;;;;7.00;5.00;;;;;11.96;100.00;100844.50;5102111;27;45570;-77
2023/01/07 09:44:52;;;;;;;;;8.00;8.00;;;;;11.94;100.00;100838.34;5097107;27;45546;-77
2023/01/07 09:47:21;;;;;;;;;7.33;4.33;;;;;12.08;100.00;100832.34;5092329;27;45366;-76
2023/01/07 09:49:51;;;;;;;;;8.00;6.67;;;;;12.20;100.00;100819.34;5093100;27;46051;-77
2023/01/07 09:52:28;;;;;;;;;9.00;7.67;;;;;12.16;100.00;100804.34;5102378;27;45527;-78
2023/01/07 09:55:01;;;;;;;;;7.33;6.33;;;;;12.26;100.00;100817.88;5094986;27;45290;-78
2023/01/07 09:57:27;;;;;;;;;9.00;9.00;;;;;12.27;100.00;100817.69;5089063;27;45686;-78
2023/01/07 09:59:52;;;;;;;;;11.00;8.00;;;;;12.28;100.00;100813.09;5102509;27;45273;-79
2023/01/07 10:02:49;;;;;;;;;9.33;8.00;;;;;12.36;100.00;100814.03;5103545;27;44844;-78
2023/01/07 10:05:26;;;;;;;;;6.00;5.67;;;;;12.35;100.00;100817.75;5103634;27;46339;-79
2023/01/07 10:08:10;;;;;;;;;5.33;5.00;;;;;12.37;100.00;100821.19;5107857;27;45226;-78
2023/01/07 10:10:41;;;;;;;;;9.67;8.00;;;;;12.43;100.00;100819.69;5105489;27;45354;-77
2023/01/07 10:13:16;;;;;;;;;10.00;10.00;;;;;12.45;100.00;100817.69;5101735;27;45460;-78
2023/01/07 10:16:31;;;;;;;;;9.00;8.00;;;;;12.52;100.00;100813.31;5099008;27;45579;-78
2023/01/07 10:19:33;;;;;;;;;6.33;6.33;;;;;12.60;100.00;100817.97;5096424;27;45396;-78
2023/01/07 10:22:20;;;;;;;;;9.33;6.00;;;;;12.66;100.00;100798.22;5101972;27;45468;-77
2023/01/07 10:24:51;;;;;;;;;8.00;8.00;;;;;12.62;100.00;100784.09;5103088;27;45604;-77
2023/01/07 10:27:28;;;;;;;;;6.33;5.33;;;;;12.74;100.00;100779.19;5103181;27;45436;-77
2023/01/07 10:29:57;;;;;;;;;8.67;6.33;;;;;12.65;100.00;100769.25;5103114;27;45416;-79
2023/01/07 10:32:28;;;;;;;;;9.33;6.67;;;;;12.73;100.00;100762.00;5081902;27;45388;-76
2023/01/07 10:34:57;;;;;;;;;8.33;8.33;;;;;12.75;100.00;100759.09;5099942;27;45503;-77
2023/01/07 10:37:28;;;;;;;;;9.67;7.33;;;;;12.75;100.00;100770.00;5099849;27;45556;-77
2023/01/07 10:40:06;;;;;;;;;8.33;6.33;;;;;12.73;100.00;100762.00;5100178;27;45704;-76
2023/01/07 10:42:39;;;;;;;;;8.00;8.00;;;;;12.75;100.00;100764.56;5093418;27;45356;-77
2023/01/07 10:45:43;;;;;;;;;12.67;11.00;;;;;12.67;100.00;100751.75;5097157;27;45565;-78
2023/01/07 10:48:26;;;;;;;;;9.67;6.67;;;;;12.71;100.00;100755.00;5106310;27;45799;-78
2023/01/07 10:51:00;;;;;;;;;6.00;4.67;;;;;12.48;100.00;100750.09;5096292;27;45501;-77
2023/01/07 10:53:34;;;;;;;;;9.67;8.67;;;;;12.78;100.00;100746.00;5083615;27;45381;-76
2023/01/07 10:55:59;;;;;;;;;7.33;5.67;;;;;12.84;100.00;100753.53;5099379;27;45507;-76
2023/01/07 10:58:37;;;;;;;;;6.33;5.00;;;;;12.67;100.00;100729.06;5097682;27;45505;-76
2023/01/07 11:01:03;;;;;;;;;6.00;6.00;;;;;12.90;100.00;100724.75;5070691;27;45289;-76
2023/01/07 11:03:28;;;;;;;;;5.00;5.00;;;;;13.02;100.00;100726.16;5096172;27;45631;-76
2023/01/07 11:05:58;;;;;;;;;7.33;6.00;;;;;13.04;100.00;100698.72;5099865;27;45702;-76
2023/01/07 11:08:35;;;;;;;;;7.33;5.33;;;;;13.06;100.00;100696.69;5094125;27;45571;-77
2023/01/07 11:11:02;;;;;;;;;6.00;6.00;;;;;13.08;100.00;100698.22;5079519;27;45309;-75
2023/01/07 11:13:34;;;;;;;;;8.33;6.67;;;;;13.17;100.00;100694.53;5084390;27;45465;-74
2023/01/07 11:16:35;;;;;;;;;9.33;6.33;;;;;13.09;100.00;100666.34;5083927;27;45463;-73
2023/01/07 11:19:08;;;;;;;;;9.67;5.33;;;;;12.97;100.00;100676.72;5039103;27;47346;-74
2023/01/07 11:21:41;;;;;;;;;5.67;5.33;;;;;12.91;100.00;100671.94;5100456;27;45439;-73
2023/01/07 11:24:18;;;;;;;;;8.00;6.67;;;;;13.10;100.00;100679.81;5102022;27;45294;-74
2023/01/07 11:26:44;;;;;;;;;5.00;5.00;;;;;12.90;100.00;100663.91;5084781;27;45607;-73
2023/01/07 11:29:24;;;;;;;;;5.00;5.00;;;;;13.30;100.00;100658.56;5101855;27;46180;-77